.
Local / CommonContents

Fort Wayne - NE Ind.
U N D E R   C O N S T R U C T I O N

Northern Indiana (IWX) Radar

Latest IWX NEXRAD
Base Reflectivity



Latest IWX NEXRAD
Base Velocity

Indiana-Ohio Visible Satellite

For infrared and water vapor imagery, see Great Lakes - Midwest.

Current Conditions

Recent report from the Fort Wayne International Airport

Nov 20, 2019 - 08:54 PM EST / 2019.11.21 0154 UTC


The skies are mostly cloudy. The temperature is 39.9 F (4.4 C) and the dew point is 36.0 F (2.2 C), giving a relative humidity of 85%. The barometric pressure is 30.22 in. Hg (1023 hPa). The wind is from the SE (140 degrees) at 3 MPH (3 KT), and the visibility is 10 mile(s).

KFWA 210154Z 14003KT 10SM BKN028 04/02 A3022 RMK AO2 SLP238 T00440022
CoCoRaHS
IN-AL-39
A2 Web Hosting
Creative Commons License
GoDaddy
search engine by freefind advanced

loaded 2019-11-20 21:59:55 • last modified 2015-05-28 14:58:18
Privacy PolicyDisclaimer
• wx.awcolley.com is powered by PmWiki v.2002016 •
• all content (unless otherwise noted) © 2019 A W Colley